sensor_id;sensor_type;location;lat;lon;timestamp;P1;durP1;ratioP1;P2;durP2;ratioP2
82646;SDS011;72325;41.910;22.404;2024-01-10T00:02:18;8.10;;;4.47;;
82646;SDS011;72325;41.910;22.404;2024-01-10T00:07:48;7.25;;;4.07;;
82646;SDS011;72325;41.910;22.404;2024-01-10T00:10:14;14.70;;;7.65;;
82646;SDS011;72325;41.910;22.404;2024-01-10T00:12:40;13.65;;;7.10;;
82646;SDS011;72325;41.910;22.404;2024-01-10T00:15:09;10.48;;;6.05;;
82646;SDS011;72325;41.910;22.404;2024-01-10T00:17:35;13.75;;;7.45;;
82646;SDS011;72325;41.910;22.404;2024-01-10T00:23:05;22.73;;;11.70;;
82646;SDS011;72325;41.910;22.404;2024-01-10T00:25:34;20.63;;;11.30;;
82646;SDS011;72325;41.910;22.404;2024-01-10T00:28:00;16.30;;;9.52;;
82646;SDS011;72325;41.910;22.404;2024-01-10T00:30:26;13.10;;;8.07;;
82646;SDS011;72325;41.910;22.404;2024-01-10T00:32:52;10.85;;;7.53;;
82646;SDS011;72325;41.910;22.404;2024-01-10T00:35:18;11.30;;;7.47;;
82646;SDS011;72325;41.910;22.404;2024-01-10T00:37:45;7.50;;;5.35;;
82646;SDS011;72325;41.910;22.404;2024-01-10T00:40:11;5.70;;;4.30;;
82646;SDS011;72325;41.910;22.404;2024-01-10T00:42:37;6.30;;;4.10;;
82646;SDS011;72325;41.910;22.404;2024-01-10T00:45:03;8.38;;;3.72;;
82646;SDS011;72325;41.910;22.404;2024-01-10T00:47:30;6.72;;;4.32;;
82646;SDS011;72325;41.910;22.404;2024-01-10T00:52:59;6.75;;;3.42;;
82646;SDS011;72325;41.910;22.404;2024-01-10T00:55:25;5.43;;;3.58;;
82646;SDS011;72325;41.910;22.404;2024-01-10T00:57:51;6.25;;;3.60;;
82646;SDS011;72325;41.910;22.404;2024-01-10T01:00:17;7.00;;;3.85;;
82646;SDS011;72325;41.910;22.404;2024-01-10T01:02:43;8.13;;;4.20;;
82646;SDS011;72325;41.910;22.404;2024-01-10T01:08:13;6.72;;;3.67;;
82646;SDS011;72325;41.910;22.404;2024-01-10T01:10:39;6.07;;;3.67;;
82646;SDS011;72325;41.910;22.404;2024-01-10T01:13:05;6.45;;;3.40;;
82646;SDS011;72325;41.910;22.404;2024-01-10T01:15:31;5.88;;;4.38;;
82646;SDS011;72325;41.910;22.404;2024-01-10T01:17:57;7.90;;;4.43;;
82646;SDS011;72325;41.910;22.404;2024-01-10T01:20:23;5.95;;;3.75;;
82646;SDS011;72325;41.910;22.404;2024-01-10T01:22:49;6.32;;;3.90;;
82646;SDS011;72325;41.910;22.404;2024-01-10T01:25:15;4.93;;;3.78;;
82646;SDS011;72325;41.910;22.404;2024-01-10T01:27:41;6.80;;;4.20;;
82646;SDS011;72325;41.910;22.404;2024-01-10T01:30:08;7.38;;;4.70;;
82646;SDS011;72325;41.910;22.404;2024-01-10T01:32:34;6.38;;;3.88;;
82646;SDS011;72325;41.910;22.404;2024-01-10T01:38:04;7.40;;;4.65;;
82646;SDS011;72325;41.910;22.404;2024-01-10T01:40:30;5.63;;;3.85;;
82646;SDS011;72325;41.910;22.404;2024-01-10T01:42:56;7.10;;;4.25;;
82646;SDS011;72325;41.910;22.404;2024-01-10T01:45:23;6.57;;;4.45;;
82646;SDS011;72325;41.910;22.404;2024-01-10T01:47:49;6.53;;;4.25;;
82646;SDS011;72325;41.910;22.404;2024-01-10T01:53:20;7.18;;;4.10;;
82646;SDS011;72325;41.910;22.404;2024-01-10T01:55:47;7.82;;;4.47;;
82646;SDS011;72325;41.910;22.404;2024-01-10T01:58:14;7.22;;;3.72;;
82646;SDS011;72325;41.910;22.404;2024-01-10T02:00:40;6.00;;;3.65;;
82646;SDS011;72325;41.910;22.404;2024-01-10T02:03:09;5.05;;;2.65;;
82646;SDS011;72325;41.910;22.404;2024-01-10T02:05:35;5.45;;;3.80;;
82646;SDS011;72325;41.910;22.404;2024-01-10T02:08:01;6.25;;;3.60;;
82646;SDS011;72325;41.910;22.404;2024-01-10T02:10:27;5.47;;;3.97;;
82646;SDS011;72325;41.910;22.404;2024-01-10T02:12:54;5.35;;;3.63;;
82646;SDS011;72325;41.910;22.404;2024-01-10T02:15:20;5.15;;;3.20;;
82646;SDS011;72325;41.910;22.404;2024-01-10T02:17:46;4.85;;;2.80;;
82646;SDS011;72325;41.910;22.404;2024-01-10T02:23:16;8.70;;;5.38;;
82646;SDS011;72325;41.910;22.404;2024-01-10T02:25:42;5.38;;;3.05;;
82646;SDS011;72325;41.910;22.404;2024-01-10T02:28:08;6.20;;;3.33;;
82646;SDS011;72325;41.910;22.404;2024-01-10T02:30:34;5.10;;;2.95;;
82646;SDS011;72325;41.910;22.404;2024-01-10T02:33:00;7.72;;;4.22;;
82646;SDS011;72325;41.910;22.404;2024-01-10T02:35:27;4.72;;;2.67;;
82646;SDS011;72325;41.910;22.404;2024-01-10T02:37:54;6.80;;;3.85;;
82646;SDS011;72325;41.910;22.404;2024-01-10T02:40:20;5.57;;;2.85;;
82646;SDS011;72325;41.910;22.404;2024-01-10T02:42:47;6.07;;;3.08;;
82646;SDS011;72325;41.910;22.404;2024-01-10T02:45:13;5.00;;;2.88;;
82646;SDS011;72325;41.910;22.404;2024-01-10T02:47:39;6.43;;;3.42;;
82646;SDS011;72325;41.910;22.404;2024-01-10T02:53:08;4.95;;;2.67;;
82646;SDS011;72325;41.910;22.404;2024-01-10T02:55:34;5.50;;;3.00;;
82646;SDS011;72325;41.910;22.404;2024-01-10T02:58:00;5.53;;;3.50;;
82646;SDS011;72325;41.910;22.404;2024-01-10T03:00:27;6.90;;;3.42;;
82646;SDS011;72325;41.910;22.404;2024-01-10T03:02:53;9.57;;;4.65;;
82646;SDS011;72325;41.910;22.404;2024-01-10T03:08:22;9.30;;;4.15;;
82646;SDS011;72325;41.910;22.404;2024-01-10T03:10:49;6.53;;;3.67;;
82646;SDS011;72325;41.910;22.404;2024-01-10T03:13:15;10.35;;;4.65;;
82646;SDS011;72325;41.910;22.404;2024-01-10T03:15:41;8.05;;;4.05;;
82646;SDS011;72325;41.910;22.404;2024-01-10T03:18:07;5.80;;;3.30;;
82646;SDS011;72325;41.910;22.404;2024-01-10T03:20:33;8.50;;;3.60;;
82646;SDS011;72325;41.910;22.404;2024-01-10T03:22:59;6.22;;;3.63;;
82646;SDS011;72325;41.910;22.404;2024-01-10T03:25:25;7.22;;;3.25;;
82646;SDS011;72325;41.910;22.404;2024-01-10T03:27:51;6.45;;;3.92;;
82646;SDS011;72325;41.910;22.404;2024-01-10T03:30:17;6.68;;;3.70;;
82646;SDS011;72325;41.910;22.404;2024-01-10T03:32:43;6.43;;;3.30;;
82646;SDS011;72325;41.910;22.404;2024-01-10T03:38:13;4.68;;;2.63;;
82646;SDS011;72325;41.910;22.404;2024-01-10T03:40:41;5.32;;;2.90;;
82646;SDS011;72325;41.910;22.404;2024-01-10T03:43:07;6.70;;;3.55;;
82646;SDS011;72325;41.910;22.404;2024-01-10T03:45:35;6.32;;;3.65;;
82646;SDS011;72325;41.910;22.404;2024-01-10T03:48:01;5.43;;;3.72;;
82646;SDS011;72325;41.910;22.404;2024-01-10T03:53:30;8.20;;;4.07;;
82646;SDS011;72325;41.910;22.404;2024-01-10T03:55:56;6.82;;;4.18;;
82646;SDS011;72325;41.910;22.404;2024-01-10T03:58:23;7.63;;;4.50;;
82646;SDS011;72325;41.910;22.404;2024-01-10T04:00:50;7.22;;;4.50;;
82646;SDS011;72325;41.910;22.404;2024-01-10T04:03:16;8.35;;;4.55;;
82646;SDS011;72325;41.910;22.404;2024-01-10T04:05:42;8.38;;;4.43;;
82646;SDS011;72325;41.910;22.404;2024-01-10T04:08:08;7.10;;;3.75;;
82646;SDS011;72325;41.910;22.404;2024-01-10T04:10:34;8.65;;;4.30;;
82646;SDS011;72325;41.910;22.404;2024-01-10T04:13:01;6.22;;;3.60;;
82646;SDS011;72325;41.910;22.404;2024-01-10T04:15:27;8.27;;;4.20;;
82646;SDS011;72325;41.910;22.404;2024-01-10T04:17:53;5.47;;;3.50;;
82646;SDS011;72325;41.910;22.404;2024-01-10T04:23:22;6.38;;;3.78;;
82646;SDS011;72325;41.910;22.404;2024-01-10T04:25:48;8.70;;;4.88;;
82646;SDS011;72325;41.910;22.404;2024-01-10T04:28:15;8.95;;;5.50;;
82646;SDS011;72325;41.910;22.404;2024-01-10T04:30:41;10.45;;;6.15;;
82646;SDS011;72325;41.910;22.404;2024-01-10T04:33:07;6.93;;;4.32;;
82646;SDS011;72325;41.910;22.404;2024-01-10T04:38:36;9.95;;;5.75;;
82646;SDS011;72325;41.910;22.404;2024-01-10T04:41:02;12.55;;;6.35;;
82646;SDS011;72325;41.910;22.404;2024-01-10T04:43:28;12.13;;;6.28;;
82646;SDS011;72325;41.910;22.404;2024-01-10T04:45:54;8.82;;;5.07;;
82646;SDS011;72325;41.910;22.404;2024-01-10T04:48:21;7.47;;;4.22;;
82646;SDS011;72325;41.910;22.404;2024-01-10T04:50:47;8.65;;;4.85;;
82646;SDS011;72325;41.910;22.404;2024-01-10T04:53:13;7.93;;;4.68;;
82646;SDS011;72325;41.910;22.404;2024-01-10T04:55:39;6.38;;;3.45;;
82646;SDS011;72325;41.910;22.404;2024-01-10T04:58:05;5.45;;;3.15;;
82646;SDS011;72325;41.910;22.404;2024-01-10T05:00:31;7.35;;;4.28;;
82646;SDS011;72325;41.910;22.404;2024-01-10T05:02:58;8.82;;;4.47;;
82646;SDS011;72325;41.910;22.404;2024-01-10T05:08:27;9.15;;;4.63;;
82646;SDS011;72325;41.910;22.404;2024-01-10T05:10:53;6.78;;;3.72;;
82646;SDS011;72325;41.910;22.404;2024-01-10T05:13:19;5.20;;;3.25;;
82646;SDS011;72325;41.910;22.404;2024-01-10T05:15:45;5.43;;;3.25;;
82646;SDS011;72325;41.910;22.404;2024-01-10T05:18:11;6.55;;;4.07;;
82646;SDS011;72325;41.910;22.404;2024-01-10T05:23:41;13.00;;;7.20;;
82646;SDS011;72325;41.910;22.404;2024-01-10T05:26:08;13.23;;;5.82;;
82646;SDS011;72325;41.910;22.404;2024-01-10T05:28:35;11.77;;;7.68;;
82646;SDS011;72325;41.910;22.404;2024-01-10T05:31:01;12.95;;;7.88;;
82646;SDS011;72325;41.910;22.404;2024-01-10T05:33:27;12.05;;;6.60;;
82646;SDS011;72325;41.910;22.404;2024-01-10T05:35:54;16.27;;;10.30;;
82646;SDS011;72325;41.910;22.404;2024-01-10T05:38:20;13.60;;;8.48;;
82646;SDS011;72325;41.910;22.404;2024-01-10T05:40:46;12.65;;;6.35;;
82646;SDS011;72325;41.910;22.404;2024-01-10T05:43:12;9.80;;;5.20;;
82646;SDS011;72325;41.910;22.404;2024-01-10T05:45:40;6.55;;;4.40;;
82646;SDS011;72325;41.910;22.404;2024-01-10T05:48:06;13.63;;;7.07;;
82646;SDS011;72325;41.910;22.404;2024-01-10T05:53:36;10.32;;;5.88;;
82646;SDS011;72325;41.910;22.404;2024-01-10T05:56:02;12.65;;;7.18;;
82646;SDS011;72325;41.910;22.404;2024-01-10T05:58:28;14.13;;;7.80;;
82646;SDS011;72325;41.910;22.404;2024-01-10T06:00:54;10.45;;;7.13;;
82646;SDS011;72325;41.910;22.404;2024-01-10T06:03:20;15.68;;;9.73;;
82646;SDS011;72325;41.910;22.404;2024-01-10T06:08:50;12.18;;;7.63;;
82646;SDS011;72325;41.910;22.404;2024-01-10T06:11:16;13.32;;;7.80;;
82646;SDS011;72325;41.910;22.404;2024-01-10T06:13:42;13.18;;;8.82;;
82646;SDS011;72325;41.910;22.404;2024-01-10T06:16:08;12.88;;;7.32;;
82646;SDS011;72325;41.910;22.404;2024-01-10T06:18:34;13.20;;;7.93;;
82646;SDS011;72325;41.910;22.404;2024-01-10T06:24:04;20.50;;;11.88;;
82646;SDS011;72325;41.910;22.404;2024-01-10T06:26:30;23.42;;;12.35;;
82646;SDS011;72325;41.910;22.404;2024-01-10T06:28:56;12.55;;;7.50;;
82646;SDS011;72325;41.910;22.404;2024-01-10T06:31:23;24.63;;;17.33;;
82646;SDS011;72325;41.910;22.404;2024-01-10T06:33:49;8.48;;;5.32;;
82646;SDS011;72325;41.910;22.404;2024-01-10T06:36:15;10.30;;;8.10;;
82646;SDS011;72325;41.910;22.404;2024-01-10T06:38:41;6.63;;;4.35;;
82646;SDS011;72325;41.910;22.404;2024-01-10T06:41:08;8.57;;;5.22;;
82646;SDS011;72325;41.910;22.404;2024-01-10T06:43:35;12.20;;;6.93;;
82646;SDS011;72325;41.910;22.404;2024-01-10T06:46:01;13.20;;;8.50;;
82646;SDS011;72325;41.910;22.404;2024-01-10T06:48:28;22.58;;;12.90;;
82646;SDS011;72325;41.910;22.404;2024-01-10T06:53:58;14.10;;;9.80;;
82646;SDS011;72325;41.910;22.404;2024-01-10T06:56:29;11.15;;;7.45;;
82646;SDS011;72325;41.910;22.404;2024-01-10T06:58:55;9.55;;;6.13;;
82646;SDS011;72325;41.910;22.404;2024-01-10T07:01:21;10.13;;;7.22;;
82646;SDS011;72325;41.910;22.404;2024-01-10T07:03:49;14.80;;;8.90;;
82646;SDS011;72325;41.910;22.404;2024-01-10T07:09:19;25.40;;;14.23;;
82646;SDS011;72325;41.910;22.404;2024-01-10T07:11:46;22.70;;;13.68;;
82646;SDS011;72325;41.910;22.404;2024-01-10T07:14:15;21.83;;;13.63;;
82646;SDS011;72325;41.910;22.404;2024-01-10T07:16:41;21.10;;;12.00;;
82646;SDS011;72325;41.910;22.404;2024-01-10T07:19:10;14.20;;;8.68;;
82646;SDS011;72325;41.910;22.404;2024-01-10T07:24:06;13.82;;;8.02;;
82646;SDS011;72325;41.910;22.404;2024-01-10T07:26:33;13.75;;;8.07;;
82646;SDS011;72325;41.910;22.404;2024-01-10T07:29:00;14.63;;;7.35;;
82646;SDS011;72325;41.910;22.404;2024-01-10T07:31:27;14.23;;;8.38;;
82646;SDS011;72325;41.910;22.404;2024-01-10T07:33:55;11.65;;;6.63;;
82646;SDS011;72325;41.910;22.404;2024-01-10T07:39:25;12.65;;;9.18;;
82646;SDS011;72325;41.910;22.404;2024-01-10T07:41:51;11.90;;;7.50;;
82646;SDS011;72325;41.910;22.404;2024-01-10T07:44:17;10.07;;;7.03;;
82646;SDS011;72325;41.910;22.404;2024-01-10T07:46:43;18.05;;;11.55;;
82646;SDS011;72325;41.910;22.404;2024-01-10T07:49:09;16.17;;;10.10;;
82646;SDS011;72325;41.910;22.404;2024-01-10T07:54:39;25.25;;;9.15;;
82646;SDS011;72325;41.910;22.404;2024-01-10T07:57:05;5.85;;;3.22;;
82646;SDS011;72325;41.910;22.404;2024-01-10T07:59:31;9.35;;;4.85;;
82646;SDS011;72325;41.910;22.404;2024-01-10T08:01:59;10.95;;;6.63;;
82646;SDS011;72325;41.910;22.404;2024-01-10T08:04:28;11.75;;;6.00;;
82646;SDS011;72325;41.910;22.404;2024-01-10T08:06:54;14.30;;;7.63;;
82646;SDS011;72325;41.910;22.404;2024-01-10T08:09:21;12.18;;;6.45;;
82646;SDS011;72325;41.910;22.404;2024-01-10T08:11:48;11.30;;;5.22;;
82646;SDS011;72325;41.910;22.404;2024-01-10T08:14:15;6.85;;;4.53;;
82646;SDS011;72325;41.910;22.404;2024-01-10T08:16:41;7.03;;;3.25;;
82646;SDS011;72325;41.910;22.404;2024-01-10T08:19:08;10.27;;;3.65;;
82646;SDS011;72325;41.910;22.404;2024-01-10T08:24:38;7.15;;;4.20;;
82646;SDS011;72325;41.910;22.404;2024-01-10T08:27:04;8.95;;;5.75;;
82646;SDS011;72325;41.910;22.404;2024-01-10T08:29:30;9.25;;;4.88;;
82646;SDS011;72325;41.910;22.404;2024-01-10T08:31:56;6.68;;;3.65;;
82646;SDS011;72325;41.910;22.404;2024-01-10T08:34:23;6.75;;;3.50;;
82646;SDS011;72325;41.910;22.404;2024-01-10T08:39:53;7.55;;;5.45;;
82646;SDS011;72325;41.910;22.404;2024-01-10T08:42:19;5.55;;;3.97;;
82646;SDS011;72325;41.910;22.404;2024-01-10T08:44:45;7.40;;;4.40;;
82646;SDS011;72325;41.910;22.404;2024-01-10T08:47:11;5.32;;;3.33;;
82646;SDS011;72325;41.910;22.404;2024-01-10T08:49:37;7.47;;;5.43;;
82646;SDS011;72325;41.910;22.404;2024-01-10T08:55:07;12.23;;;7.35;;
82646;SDS011;72325;41.910;22.404;2024-01-10T08:57:33;6.68;;;4.25;;
82646;SDS011;72325;41.910;22.404;2024-01-10T08:59:59;8.65;;;5.50;;
82646;SDS011;72325;41.910;22.404;2024-01-10T09:02:25;10.85;;;7.15;;
82646;SDS011;72325;41.910;22.404;2024-01-10T09:04:52;7.25;;;4.28;;
82646;SDS011;72325;41.910;22.404;2024-01-10T09:07:19;11.02;;;8.25;;
82646;SDS011;72325;41.910;22.404;2024-01-10T09:09:46;7.82;;;5.10;;
82646;SDS011;72325;41.910;22.404;2024-01-10T09:12:12;8.40;;;4.80;;
82646;SDS011;72325;41.910;22.404;2024-01-10T09:14:38;8.27;;;4.57;;
82646;SDS011;72325;41.910;22.404;2024-01-10T09:17:05;10.07;;;5.72;;
82646;SDS011;72325;41.910;22.404;2024-01-10T09:19:31;13.40;;;7.40;;
82646;SDS011;72325;41.910;22.404;2024-01-10T09:25:01;7.00;;;4.63;;
82646;SDS011;72325;41.910;22.404;2024-01-10T09:27:32;6.63;;;3.30;;
82646;SDS011;72325;41.910;22.404;2024-01-10T09:30:02;7.20;;;4.20;;
82646;SDS011;72325;41.910;22.404;2024-01-10T09:32:28;4.78;;;2.85;;
82646;SDS011;72325;41.910;22.404;2024-01-10T09:34:55;5.50;;;3.45;;
82646;SDS011;72325;41.910;22.404;2024-01-10T09:40:43;13.25;;;6.10;;
82646;SDS011;72325;41.910;22.404;2024-01-10T09:43:09;7.72;;;3.42;;
82646;SDS011;72325;41.910;22.404;2024-01-10T09:45:35;6.20;;;3.45;;
82646;SDS011;72325;41.910;22.404;2024-01-10T09:48:06;7.25;;;4.10;;
82646;SDS011;72325;41.910;22.404;2024-01-10T09:50:32;8.68;;;5.60;;
82646;SDS011;72325;41.910;22.404;2024-01-10T09:53:05;5.28;;;3.80;;
82646;SDS011;72325;41.910;22.404;2024-01-10T09:55:34;6.00;;;3.83;;
82646;SDS011;72325;41.910;22.404;2024-01-10T09:58:06;5.55;;;2.78;;
82646;SDS011;72325;41.910;22.404;2024-01-10T10:00:43;4.88;;;2.42;;
82646;SDS011;72325;41.910;22.404;2024-01-10T10:03:09;5.30;;;2.90;;
82646;SDS011;72325;41.910;22.404;2024-01-10T10:05:37;7.93;;;3.13;;
82646;SDS011;72325;41.910;22.404;2024-01-10T10:08:06;5.25;;;3.58;;
82646;SDS011;72325;41.910;22.404;2024-01-10T10:10:32;6.35;;;3.40;;
82646;SDS011;72325;41.910;22.404;2024-01-10T10:12:58;6.70;;;3.30;;
82646;SDS011;72325;41.910;22.404;2024-01-10T10:15:24;4.70;;;3.25;;
82646;SDS011;72325;41.910;22.404;2024-01-10T10:17:54;4.35;;;2.85;;
82646;SDS011;72325;41.910;22.404;2024-01-10T10:20:24;4.50;;;2.53;;
82646;SDS011;72325;41.910;22.404;2024-01-10T10:23:03;4.60;;;2.97;;
82646;SDS011;72325;41.910;22.404;2024-01-10T10:25:30;4.65;;;3.15;;
82646;SDS011;72325;41.910;22.404;2024-01-10T10:27:57;6.70;;;4.05;;
82646;SDS011;72325;41.910;22.404;2024-01-10T10:30:23;6.57;;;4.07;;
82646;SDS011;72325;41.910;22.404;2024-01-10T10:32:49;8.20;;;5.10;;
82646;SDS011;72325;41.910;22.404;2024-01-10T10:35:15;5.75;;;3.83;;
82646;SDS011;72325;41.910;22.404;2024-01-10T10:37:42;5.60;;;3.47;;
82646;SDS011;72325;41.910;22.404;2024-01-10T10:40:08;5.40;;;3.38;;
82646;SDS011;72325;41.910;22.404;2024-01-10T10:42:34;7.78;;;4.88;;
82646;SDS011;72325;41.910;22.404;2024-01-10T10:45:04;10.48;;;6.75;;
82646;SDS011;72325;41.910;22.404;2024-01-10T10:47:36;13.02;;;6.82;;
82646;SDS011;72325;41.910;22.404;2024-01-10T10:50:03;12.70;;;6.60;;
82646;SDS011;72325;41.910;22.404;2024-01-10T10:55:34;7.53;;;4.25;;
82646;SDS011;72325;41.910;22.404;2024-01-10T10:58:00;4.85;;;2.85;;
82646;SDS011;72325;41.910;22.404;2024-01-10T11:00:27;7.88;;;5.68;;
82646;SDS011;72325;41.910;22.404;2024-01-10T11:02:54;10.15;;;6.20;;
82646;SDS011;72325;41.910;22.404;2024-01-10T11:05:22;8.52;;;5.47;;
82646;SDS011;72325;41.910;22.404;2024-01-10T11:07:48;9.80;;;4.90;;
82646;SDS011;72325;41.910;22.404;2024-01-10T11:10:18;7.15;;;4.65;;
82646;SDS011;72325;41.910;22.404;2024-01-10T11:15:29;12.02;;;8.00;;
82646;SDS011;72325;41.910;22.404;2024-01-10T11:20:49;10.80;;;6.63;;
82646;SDS011;72325;41.910;22.404;2024-01-10T11:26:09;10.68;;;6.60;;
82646;SDS011;72325;41.910;22.404;2024-01-10T11:28:36;11.05;;;7.72;;
82646;SDS011;72325;41.910;22.404;2024-01-10T11:31:05;10.45;;;6.80;;
82646;SDS011;72325;41.910;22.404;2024-01-10T11:33:33;15.23;;;8.77;;
82646;SDS011;72325;41.910;22.404;2024-01-10T11:41:09;16.35;;;11.18;;
82646;SDS011;72325;41.910;22.404;2024-01-10T11:43:36;17.88;;;10.88;;
82646;SDS011;72325;41.910;22.404;2024-01-10T11:46:02;10.40;;;7.88;;
82646;SDS011;72325;41.910;22.404;2024-01-10T11:48:30;9.88;;;6.55;;
82646;SDS011;72325;41.910;22.404;2024-01-10T11:50:57;8.98;;;5.50;;
82646;SDS011;72325;41.910;22.404;2024-01-10T11:53:39;11.65;;;6.20;;
82646;SDS011;72325;41.910;22.404;2024-01-10T11:56:09;12.75;;;6.88;;
82646;SDS011;72325;41.910;22.404;2024-01-10T11:58:51;11.18;;;7.13;;
82646;SDS011;72325;41.910;22.404;2024-01-10T12:01:18;12.75;;;7.72;;
82646;SDS011;72325;41.910;22.404;2024-01-10T12:03:44;15.68;;;9.25;;
82646;SDS011;72325;41.910;22.404;2024-01-10T12:06:13;12.05;;;8.57;;
82646;SDS011;72325;41.910;22.404;2024-01-10T12:11:06;12.82;;;7.63;;
82646;SDS011;72325;41.910;22.404;2024-01-10T12:13:34;9.57;;;6.32;;
82646;SDS011;72325;41.910;22.404;2024-01-10T12:16:00;14.15;;;7.13;;
82646;SDS011;72325;41.910;22.404;2024-01-10T12:18:26;8.52;;;4.78;;
82646;SDS011;72325;41.910;22.404;2024-01-10T12:20:52;11.60;;;6.95;;
82646;SDS011;72325;41.910;22.404;2024-01-10T12:23:18;10.50;;;6.80;;
82646;SDS011;72325;41.910;22.404;2024-01-10T12:25:44;13.07;;;6.88;;
82646;SDS011;72325;41.910;22.404;2024-01-10T12:28:15;8.02;;;5.55;;
82646;SDS011;72325;41.910;22.404;2024-01-10T12:30:41;13.10;;;7.95;;
82646;SDS011;72325;41.910;22.404;2024-01-10T12:33:10;9.30;;;5.63;;
82646;SDS011;72325;41.910;22.404;2024-01-10T12:35:37;11.73;;;7.85;;
82646;SDS011;72325;41.910;22.404;2024-01-10T12:41:10;12.00;;;8.77;;
82646;SDS011;72325;41.910;22.404;2024-01-10T12:43:37;10.07;;;6.20;;
82646;SDS011;72325;41.910;22.404;2024-01-10T12:48:29;12.90;;;7.90;;
82646;SDS011;72325;41.910;22.404;2024-01-10T12:50:56;14.70;;;8.13;;
82646;SDS011;72325;41.910;22.404;2024-01-10T12:55:51;10.75;;;7.18;;
82646;SDS011;72325;41.910;22.404;2024-01-10T12:58:17;10.32;;;6.53;;
82646;SDS011;72325;41.910;22.404;2024-01-10T13:00:44;7.50;;;4.72;;
82646;SDS011;72325;41.910;22.404;2024-01-10T13:03:10;10.55;;;6.15;;
82646;SDS011;72325;41.910;22.404;2024-01-10T13:05:37;14.90;;;8.52;;
82646;SDS011;72325;41.910;22.404;2024-01-10T13:11:07;12.85;;;7.18;;
82646;SDS011;72325;41.910;22.404;2024-01-10T13:13:37;11.07;;;6.60;;
82646;SDS011;72325;41.910;22.404;2024-01-10T13:16:05;10.20;;;6.22;;
82646;SDS011;72325;41.910;22.404;2024-01-10T13:18:31;11.05;;;8.25;;
82646;SDS011;72325;41.910;22.404;2024-01-10T13:20:57;15.40;;;7.93;;
82646;SDS011;72325;41.910;22.404;2024-01-10T13:26:26;11.50;;;6.53;;
82646;SDS011;72325;41.910;22.404;2024-01-10T13:28:53;11.43;;;6.68;;
82646;SDS011;72325;41.910;22.404;2024-01-10T13:31:19;12.15;;;7.10;;
82646;SDS011;72325;41.910;22.404;2024-01-10T13:33:45;17.77;;;8.70;;
82646;SDS011;72325;41.910;22.404;2024-01-10T13:36:11;11.45;;;7.35;;
82646;SDS011;72325;41.910;22.404;2024-01-10T13:38:37;14.13;;;8.18;;
82646;SDS011;72325;41.910;22.404;2024-01-10T13:41:03;13.57;;;7.80;;
82646;SDS011;72325;41.910;22.404;2024-01-10T13:43:30;14.60;;;8.25;;
82646;SDS011;72325;41.910;22.404;2024-01-10T13:45:56;22.08;;;12.18;;
82646;SDS011;72325;41.910;22.404;2024-01-10T13:48:22;12.60;;;8.85;;
82646;SDS011;72325;41.910;22.404;2024-01-10T13:50:48;15.45;;;8.90;;
82646;SDS011;72325;41.910;22.404;2024-01-10T13:56:18;18.90;;;11.52;;
82646;SDS011;72325;41.910;22.404;2024-01-10T13:58:44;11.93;;;6.90;;
82646;SDS011;72325;41.910;22.404;2024-01-10T14:01:10;14.05;;;9.35;;
82646;SDS011;72325;41.910;22.404;2024-01-10T14:03:36;18.10;;;10.00;;
82646;SDS011;72325;41.910;22.404;2024-01-10T14:06:02;11.57;;;8.63;;
82646;SDS011;72325;41.910;22.404;2024-01-10T14:11:32;17.75;;;9.88;;
82646;SDS011;72325;41.910;22.404;2024-01-10T14:13:59;12.00;;;7.97;;
82646;SDS011;72325;41.910;22.404;2024-01-10T14:16:26;13.40;;;8.68;;
82646;SDS011;72325;41.910;22.404;2024-01-10T14:18:53;14.13;;;9.18;;
82646;SDS011;72325;41.910;22.404;2024-01-10T14:21:21;11.60;;;8.15;;
82646;SDS011;72325;41.910;22.404;2024-01-10T14:23:47;15.68;;;9.10;;
82646;SDS011;72325;41.910;22.404;2024-01-10T14:26:16;15.55;;;10.05;;
82646;SDS011;72325;41.910;22.404;2024-01-10T14:28:42;15.05;;;9.50;;
82646;SDS011;72325;41.910;22.404;2024-01-10T14:31:09;18.90;;;9.43;;
82646;SDS011;72325;41.910;22.404;2024-01-10T14:33:38;13.82;;;8.05;;
82646;SDS011;72325;41.910;22.404;2024-01-10T14:36:05;16.02;;;9.73;;
82646;SDS011;72325;41.910;22.404;2024-01-10T14:41:35;20.67;;;10.93;;
82646;SDS011;72325;41.910;22.404;2024-01-10T14:44:01;14.57;;;8.80;;
82646;SDS011;72325;41.910;22.404;2024-01-10T14:46:28;13.23;;;8.25;;
82646;SDS011;72325;41.910;22.404;2024-01-10T14:48:54;16.80;;;11.02;;
82646;SDS011;72325;41.910;22.404;2024-01-10T14:51:21;16.52;;;10.50;;
82646;SDS011;72325;41.910;22.404;2024-01-10T14:57:10;18.13;;;9.68;;
82646;SDS011;72325;41.910;22.404;2024-01-10T14:59:36;13.93;;;9.68;;
82646;SDS011;72325;41.910;22.404;2024-01-10T15:02:02;17.20;;;11.18;;
82646;SDS011;72325;41.910;22.404;2024-01-10T15:04:32;21.30;;;12.68;;
82646;SDS011;72325;41.910;22.404;2024-01-10T15:06:58;17.58;;;12.10;;
82646;SDS011;72325;41.910;22.404;2024-01-10T15:09:26;18.08;;;12.07;;
82646;SDS011;72325;41.910;22.404;2024-01-10T15:11:52;19.17;;;13.73;;
82646;SDS011;72325;41.910;22.404;2024-01-10T15:14:19;29.38;;;16.48;;
82646;SDS011;72325;41.910;22.404;2024-01-10T15:16:47;29.13;;;16.45;;
82646;SDS011;72325;41.910;22.404;2024-01-10T15:19:13;21.65;;;12.48;;
82646;SDS011;72325;41.910;22.404;2024-01-10T15:21:39;20.85;;;12.30;;
82646;SDS011;72325;41.910;22.404;2024-01-10T15:24:06;21.17;;;13.15;;
82646;SDS011;72325;41.910;22.404;2024-01-10T15:26:32;27.33;;;18.75;;
82646;SDS011;72325;41.910;22.404;2024-01-10T15:28:59;26.58;;;16.33;;
82646;SDS011;72325;41.910;22.404;2024-01-10T15:31:25;23.77;;;14.70;;
82646;SDS011;72325;41.910;22.404;2024-01-10T15:33:53;25.83;;;17.38;;
82646;SDS011;72325;41.910;22.404;2024-01-10T15:36:19;23.45;;;16.50;;
82646;SDS011;72325;41.910;22.404;2024-01-10T15:41:49;27.15;;;17.75;;
82646;SDS011;72325;41.910;22.404;2024-01-10T15:44:15;24.52;;;16.40;;
82646;SDS011;72325;41.910;22.404;2024-01-10T15:46:41;21.90;;;14.48;;
82646;SDS011;72325;41.910;22.404;2024-01-10T15:49:07;27.17;;;18.45;;
82646;SDS011;72325;41.910;22.404;2024-01-10T15:51:35;24.00;;;15.80;;
82646;SDS011;72325;41.910;22.404;2024-01-10T15:57:05;30.35;;;20.02;;
82646;SDS011;72325;41.910;22.404;2024-01-10T15:59:31;32.80;;;20.63;;
82646;SDS011;72325;41.910;22.404;2024-01-10T16:01:57;33.03;;;20.70;;
82646;SDS011;72325;41.910;22.404;2024-01-10T16:04:23;26.42;;;16.55;;
82646;SDS011;72325;41.910;22.404;2024-01-10T16:06:49;32.63;;;20.33;;
82646;SDS011;72325;41.910;22.404;2024-01-10T16:09:15;36.08;;;21.67;;
82646;SDS011;72325;41.910;22.404;2024-01-10T16:11:41;36.17;;;22.35;;
82646;SDS011;72325;41.910;22.404;2024-01-10T16:14:08;25.13;;;17.98;;
82646;SDS011;72325;41.910;22.404;2024-01-10T16:16:34;28.65;;;18.38;;
82646;SDS011;72325;41.910;22.404;2024-01-10T16:19:01;37.38;;;25.73;;
82646;SDS011;72325;41.910;22.404;2024-01-10T16:21:28;28.75;;;18.63;;
82646;SDS011;72325;41.910;22.404;2024-01-10T16:26:58;38.53;;;25.15;;
82646;SDS011;72325;41.910;22.404;2024-01-10T16:29:24;26.30;;;17.95;;
82646;SDS011;72325;41.910;22.404;2024-01-10T16:31:51;31.02;;;18.70;;
82646;SDS011;72325;41.910;22.404;2024-01-10T16:34:17;32.38;;;20.30;;
82646;SDS011;72325;41.910;22.404;2024-01-10T16:36:44;32.75;;;18.05;;
82646;SDS011;72325;41.910;22.404;2024-01-10T16:39:11;31.45;;;16.85;;
82646;SDS011;72325;41.910;22.404;2024-01-10T16:41:37;32.78;;;17.45;;
82646;SDS011;72325;41.910;22.404;2024-01-10T16:44:03;45.22;;;26.60;;